首页
METAR-TAF:

METAR-TAF

机场 :

普兰特城, 佛罗里达州, 美国

纬度: 28-00-01N, 经度: 082-09-51W, 海拔: 47米

当前天气观测

该预报发布于22分钟前的15:35 UTC
静风
温度 32°C
湿度 63%
气压 1017 hPa
能見度: 16.1公里
阴天层高于3200英尺

METAR: KPCM 241535Z AUTO 00000KT 10SM OVC032 32/24 A3002 RMK AO2

时间: 11:57 (15:57 UTC)


TAF: 丢失

超过4000个机场的气象观测和天气预报(METAR&TAF报告)。

可查询的气象台以黄色和红色小点在地图上表示。

将鼠标移到小点上方,可查看气象台名称。

然后点击查看天气观测和预报。

如需切换地图:点击带黑十字的绿色按钮放大地图;点击带横线的绿色按钮缩小地图;或者点击绿色箭头查看邻近地区的地图。


METAR-TAF: